Time;durP1;ratioP1;P1;durP2;ratioP2;P2;SDS_P1;SDS_P2;PMS_P1;PMS_P2;Temp;Humidity;BMP_temperature;BMP_pressure;BME280_temperature;BME280_humidity;BME280_pressure;Samples;Min_cycle;Max_cycle;Signal;HPM_P1;HPM_P2
2022/04/13 00:03:49;;;;;;;8.43;4.83;;;14.90;82.50;;;;;;10428138;28;20612;-72
2022/04/13 00:08:50;;;;;;;5.93;5.00;;;14.70;82.70;;;;;;10429278;28;20318;-71
2022/04/13 00:13:50;;;;;;;4.63;3.30;;;14.60;81.60;;;;;;10440162;28;20303;-72
2022/04/13 00:18:51;;;;;;;6.33;3.63;;;14.60;79.60;;;;;;10434567;28;20660;-72
2022/04/13 00:23:52;;;;;;;5.33;3.20;;;14.60;80.30;;;;;;10434880;28;20195;-71
2022/04/13 00:28:52;;;;;;;5.67;4.33;;;14.60;80.00;;;;;;10426983;28;20189;-72
2022/04/13 00:33:53;;;;;;;5.23;4.10;;;14.60;82.60;;;;;;10433079;28;20231;-72
2022/04/13 00:38:54;;;;;;;6.23;4.57;;;14.40;85.20;;;;;;10434255;28;20241;-71
2022/04/13 00:44:08;;;;;;;8.93;5.00;;;14.30;87.60;;;;;;10426031;28;20194;-73
2022/04/13 00:49:08;;;;;;;7.77;4.10;;;14.20;89.10;;;;;;10426193;28;20615;-72
2022/04/13 00:54:11;;;;;;;6.97;5.03;;;14.00;90.70;;;;;;10428029;28;20251;-73
2022/04/13 00:59:13;;;;;;;8.53;5.83;;;13.80;91.90;;;;;;10439857;28;20565;-72
2022/04/13 01:04:14;;;;;;;5.13;4.20;;;13.70;93.60;;;;;;10442217;28;20197;-73
2022/04/13 01:09:17;;;;;;;7.00;5.30;;;13.60;95.60;;;;;;10436301;28;20189;-72
2022/04/13 01:14:18;;;;;;;5.50;4.53;;;13.50;98.00;;;;;;10439647;28;20208;-73
2022/04/13 01:19:19;;;;;;;5.90;4.20;;;13.60;99.90;;;;;;10440427;28;20546;-72
2022/04/13 01:24:21;;;;;;;6.30;4.47;;;13.60;99.90;;;;;;10435581;28;20188;-73
2022/04/13 01:29:22;;;;;;;8.73;5.57;;;13.60;99.90;;;;;;10443112;28;20287;-73
2022/04/13 01:34:23;;;;;;;5.20;4.27;;;13.60;99.90;;;;;;10438768;28;20299;-72
2022/04/13 01:39:23;;;;;;;6.40;4.10;;;13.60;99.90;;;;;;10441907;28;20259;-75
2022/04/13 01:44:24;;;;;;;5.90;4.80;;;13.60;99.90;;;;;;10427132;28;20187;-73
2022/04/13 01:49:24;;;;;;;6.40;4.57;;;13.60;99.90;;;;;;10450125;28;20620;-74
2022/04/13 01:54:25;;;;;;;7.43;5.80;;;13.60;99.90;;;;;;10435293;28;20252;-74
2022/04/13 01:59:26;;;;;;;8.13;4.40;;;13.50;99.90;;;;;;10446099;28;20198;-74
2022/04/13 02:04:30;;;;;;;5.50;4.57;;;13.50;99.90;;;;;;10433430;28;20254;-71
2022/04/13 02:09:31;;;;;;;6.73;4.67;;;13.40;99.90;;;;;;10442833;28;20184;-72
2022/04/13 02:14:31;;;;;;;6.13;4.70;;;13.40;99.90;;;;;;10439659;28;20588;-72
2022/04/13 02:19:35;;;;;;;7.63;4.90;;;13.30;99.90;;;;;;10435719;28;20721;-72
2022/04/13 02:24:36;;;;;;;6.90;4.40;;;13.30;99.90;;;;;;10436210;28;20820;-71
2022/04/13 02:29:37;;;;;;;5.13;3.77;;;13.30;99.90;;;;;;10439844;28;20216;-72
2022/04/13 02:34:37;;;;;;;6.27;3.40;;;13.30;99.90;;;;;;10433799;28;20661;-72
2022/04/13 02:39:39;;;;;;;7.13;3.80;;;13.40;99.90;;;;;;10436414;28;20184;-71
2022/04/13 02:44:39;;;;;;;6.93;3.80;;;13.40;99.90;;;;;;10434740;28;20578;-72
2022/04/13 02:49:41;;;;;;;6.90;4.33;;;13.50;99.90;;;;;;10435478;28;20198;-72
2022/04/13 02:54:41;;;;;;;8.03;4.63;;;13.50;99.90;;;;;;10433837;28;20208;-74
2022/04/13 02:59:46;;;;;;;8.17;4.20;;;13.60;99.90;;;;;;10437650;28;20188;-73
2022/04/13 03:04:47;;;;;;;6.30;4.37;;;13.60;99.90;;;;;;10431491;28;20198;-73
2022/04/13 03:09:51;;;;;;;6.73;5.00;;;13.70;99.90;;;;;;10436714;28;20241;-73
2022/04/13 03:14:55;;;;;;;7.30;5.23;;;13.70;99.90;;;;;;10440560;28;20216;-73
2022/04/13 03:19:55;;;;;;;9.00;4.67;;;13.70;99.90;;;;;;10429755;28;20193;-73
2022/04/13 03:25:00;;;;;;;8.63;5.93;;;13.70;99.90;;;;;;10428768;28;20194;-74
2022/04/13 03:30:00;;;;;;;8.10;6.23;;;13.70;99.90;;;;;;10428714;28;20201;-74
2022/04/13 03:35:01;;;;;;;10.03;6.50;;;13.60;99.90;;;;;;10438289;28;20226;-72
2022/04/13 03:40:02;;;;;;;10.77;6.83;;;13.60;99.90;;;;;;10444864;28;20192;-73
2022/04/13 03:45:12;;;;;;;7.97;5.40;;;13.50;99.90;;;;;;10433188;28;20188;-74
2022/04/13 03:50:15;;;;;;;9.00;5.47;;;13.50;99.90;;;;;;10448765;28;20216;-73
2022/04/13 03:55:19;;;;;;;6.63;4.60;;;13.50;99.90;;;;;;10443528;28;20501;-75
2022/04/13 04:00:19;;;;;;;9.90;6.30;;;13.50;99.90;;;;;;10431574;28;20561;-74
2022/04/13 04:05:25;;;;;;;7.27;5.67;;;13.40;99.90;;;;;;10438444;28;20181;-74
2022/04/13 04:10:26;;;;;;;10.37;5.20;;;13.30;99.90;;;;;;10435154;28;20196;-74
2022/04/13 04:15:27;;;;;;;7.23;5.10;;;13.20;99.90;;;;;;10431167;28;20216;-74
2022/04/13 04:20:28;;;;;;;6.30;4.43;;;13.00;99.90;;;;;;10438165;28;20188;-73
2022/04/13 04:25:29;;;;;;;7.83;5.03;;;12.90;99.90;;;;;;10429903;28;20218;-72
2022/04/13 04:30:31;;;;;;;7.27;5.60;;;12.70;99.90;;;;;;10428096;28;20198;-72
2022/04/13 04:35:32;;;;;;;8.00;5.53;;;12.70;99.90;;;;;;10439421;28;20195;-72
2022/04/13 04:40:33;;;;;;;7.53;4.83;;;12.60;99.90;;;;;;10436848;28;20185;-72
2022/04/13 04:45:34;;;;;;;6.63;4.77;;;12.50;99.90;;;;;;10440340;28;20298;-71
2022/04/13 04:50:35;;;;;;;6.33;4.90;;;12.30;99.90;;;;;;10444071;28;20644;-73
2022/04/13 04:55:35;;;;;;;8.97;4.90;;;12.20;99.90;;;;;;10449218;28;20196;-74
2022/04/13 05:00:36;;;;;;;9.27;4.90;;;12.20;99.90;;;;;;10457238;28;20188;-73
2022/04/13 05:05:39;;;;;;;10.03;5.43;;;12.20;99.90;;;;;;10454789;28;20227;-75
2022/04/13 05:10:51;;;;;;;15.83;5.10;;;12.30;99.90;;;;;;10428015;28;20235;-73
2022/04/13 05:15:52;;;;;;;13.10;5.60;;;12.40;99.90;;;;;;10440744;28;20203;-73
2022/04/13 05:20:53;;;;;;;10.07;5.13;;;12.50;99.90;;;;;;10457855;28;20760;-74
2022/04/13 05:26:00;;;;;;;8.23;4.70;;;12.60;99.90;;;;;;10449889;28;20274;-73
2022/04/13 05:31:00;;;;;;;8.43;4.87;;;12.80;99.90;;;;;;10441139;28;20314;-72
2022/04/13 05:36:02;;;;;;;9.67;5.00;;;13.00;99.90;;;;;;10433882;28;20543;-70
2022/04/13 05:41:03;;;;;;;7.47;4.47;;;13.20;99.90;;;;;;10432320;28;20508;-71
2022/04/13 05:46:04;;;;;;;10.63;4.60;;;13.50;99.90;;;;;;10439986;28;20207;-71
2022/04/13 05:51:04;;;;;;;6.20;4.10;;;13.80;99.90;;;;;;10432354;28;20251;-71
2022/04/13 05:56:05;;;;;;;9.70;4.33;;;14.20;99.90;;;;;;10442016;28;20229;-73
2022/04/13 06:01:06;;;;;;;10.13;3.93;;;14.60;99.90;;;;;;10448374;28;20268;-68
2022/04/13 06:06:07;;;;;;;7.63;4.00;;;15.40;99.90;;;;;;10438192;28;20347;-69
2022/04/13 06:11:07;;;;;;;8.27;4.20;;;16.10;99.90;;;;;;10437476;28;20187;-70
2022/04/13 06:16:08;;;;;;;10.20;4.00;;;16.90;99.90;;;;;;10452997;28;20204;-68
2022/04/13 06:21:09;;;;;;;12.07;4.27;;;17.80;99.90;;;;;;10442815;28;20194;-69
2022/04/13 06:26:10;;;;;;;8.37;4.00;;;18.10;99.90;;;;;;10429059;28;20214;-68
2022/04/13 06:31:10;;;;;;;9.33;4.10;;;18.30;99.90;;;;;;10428211;28;20253;-68
2022/04/13 06:36:11;;;;;;;11.10;5.27;;;18.30;99.20;;;;;;10435382;28;20199;-69
2022/04/13 06:41:15;;;;;;;10.60;4.43;;;18.50;98.40;;;;;;10429787;28;20211;-67
2022/04/13 06:46:19;;;;;;;7.47;4.20;;;18.70;96.90;;;;;;10436064;28;20577;-68
2022/04/13 06:51:20;;;;;;;11.67;3.90;;;18.90;95.50;;;;;;10428116;28;20603;-68
2022/04/13 06:56:21;;;;;;;12.33;3.40;;;19.10;94.30;;;;;;10430610;28;20268;-69
2022/04/13 07:01:21;;;;;;;19.47;4.80;;;19.40;93.60;;;;;;10416292;28;20199;-68
2022/04/13 07:06:22;;;;;;;8.67;3.50;;;19.80;92.30;;;;;;10437387;28;20215;-68
2022/04/13 07:11:22;;;;;;;11.97;4.10;;;20.10;90.80;;;;;;10430602;28;20195;-69
2022/04/13 07:16:23;;;;;;;12.90;4.20;;;20.30;90.00;;;;;;10437607;28;20239;-69
2022/04/13 07:21:24;;;;;;;12.07;3.80;;;20.50;88.10;;;;;;10427673;28;20196;-69
2022/04/13 07:26:24;;;;;;;14.10;4.70;;;21.10;84.40;;;;;;10428428;28;20584;-69
2022/04/13 07:31:25;;;;;;;9.77;3.70;;;21.70;78.70;;;;;;10435536;28;20184;-68
2022/04/13 07:36:25;;;;;;;4.43;3.27;;;22.10;74.20;;;;;;10430912;28;20188;-68
2022/04/13 07:41:26;;;;;;;9.53;3.50;;;22.60;70.90;;;;;;10425653;28;20197;-69
2022/04/13 07:46:28;;;;;;;4.63;3.60;;;22.30;70.70;;;;;;10430466;28;20215;-69
2022/04/13 07:51:28;;;;;;;9.73;3.37;;;21.50;72.50;;;;;;10431330;28;20668;-68
2022/04/13 07:56:32;;;;;;;8.60;3.47;;;21.50;73.30;;;;;;10428984;28;20196;-69
2022/04/13 08:01:33;;;;;;;12.70;3.60;;;21.10;70.00;;;;;;10434000;28;20185;-69
2022/04/13 08:06:33;;;;;;;7.57;3.57;;;21.10;69.30;;;;;;10440717;28;20212;-68
2022/04/13 08:11:34;;;;;;;12.07;4.10;;;22.00;67.60;;;;;;10425985;28;20196;-69
2022/04/13 08:16:34;;;;;;;7.57;3.50;;;22.90;64.00;;;;;;10437713;28;20204;-69
2022/04/13 08:21:38;;;;;;;8.10;4.10;;;23.30;62.00;;;;;;10430109;28;20767;-68
2022/04/13 08:26:38;;;;;;;6.90;3.57;;;24.20;59.50;;;;;;10429399;28;20206;-69
2022/04/13 08:31:39;;;;;;;7.10;3.93;;;26.20;55.70;;;;;;10430097;28;20184;-69
2022/04/13 08:36:40;;;;;;;11.03;4.30;;;28.10;49.90;;;;;;10429009;28;20223;-69
2022/04/13 08:41:49;;;;;;;6.17;3.73;;;29.00;47.20;;;;;;10430497;28;20262;-68
2022/04/13 08:46:55;;;;;;;6.20;4.20;;;29.60;45.30;;;;;;10427024;28;20678;-70
2022/04/13 08:52:02;;;;;;;8.47;4.63;;;29.90;43.50;;;;;;10431994;28;20219;-70
2022/04/13 08:57:07;;;;;;;9.70;4.67;;;28.80;45.40;;;;;;10423672;28;20191;-69
2022/04/13 09:02:37;;;;;;;6.90;4.40;;;28.20;46.40;;;;;;10425342;28;20189;-70
2022/04/13 09:07:39;;;;;;;9.83;4.27;;;28.00;45.90;;;;;;10428725;28;20181;-70
2022/04/13 09:12:41;;;;;;;9.70;4.77;;;28.50;45.30;;;;;;10432596;28;20193;-69
2022/04/13 09:17:42;;;;;;;6.77;4.73;;;28.00;45.00;;;;;;10435891;28;20585;-69
2022/04/13 09:22:43;;;;;;;5.23;3.93;;;28.80;44.60;;;;;;10445178;28;20254;-69
2022/04/13 09:27:44;;;;;;;12.03;4.60;;;30.50;41.70;;;;;;10431931;28;20187;-69
2022/04/13 09:32:45;;;;;;;8.60;4.67;;;31.80;39.00;;;;;;10433975;28;20173;-68
2022/04/13 09:37:46;;;;;;;7.73;4.40;;;32.90;37.70;;;;;;10437202;28;20502;-69
2022/04/13 09:42:47;;;;;;;6.03;4.53;;;32.90;36.60;;;;;;10439148;28;20184;-69
2022/04/13 09:47:47;;;;;;;4.80;4.30;;;34.30;34.60;;;;;;10434009;28;20252;-68
2022/04/13 09:52:52;;;;;;;7.60;4.57;;;35.20;32.70;;;;;;10438750;28;20184;-69
2022/04/13 09:58:06;;;;;;;6.83;4.50;;;35.30;32.90;;;;;;10437596;28;20203;-69
2022/04/13 10:03:15;;;;;;;9.77;5.17;;;35.00;33.20;;;;;;10437688;28;20765;-69
2022/04/13 10:08:23;;;;;;;8.33;4.27;;;34.00;33.50;;;;;;10443895;28;20180;-69
2022/04/13 10:13:38;;;;;;;7.57;4.33;;;34.90;32.80;;;;;;10448110;28;20215;-69
2022/04/13 10:18:58;;;;;;;7.93;5.30;;;36.60;31.20;;;;;;10437731;28;20557;-69
2022/04/13 10:23:58;;;;;;;12.20;5.13;;;36.40;30.00;;;;;;10437081;28;20196;-69
2022/04/13 10:28:59;;;;;;;7.53;5.40;;;34.90;31.00;;;;;;10428588;28;20192;-69
2022/04/13 10:33:59;;;;;;;10.93;5.80;;;36.10;30.90;;;;;;10436386;28;20188;-69
2022/04/13 10:39:00;;;;;;;10.67;5.30;;;36.50;29.00;;;;;;10435742;28;20269;-70
2022/04/13 10:44:02;;;;;;;9.20;5.13;;;33.90;31.20;;;;;;10427915;28;20661;-69
2022/04/13 10:49:09;;;;;;;8.93;5.80;;;33.40;32.50;;;;;;10435699;28;20184;-69
2022/04/13 10:54:11;;;;;;;14.33;6.20;;;33.70;32.70;;;;;;10444176;28;20192;-69
2022/04/13 10:59:15;;;;;;;13.20;6.10;;;33.70;31.80;;;;;;10434035;28;20646;-69
2022/04/13 11:04:16;;;;;;;10.30;5.60;;;32.70;33.50;;;;;;10429074;28;20213;-69
2022/04/13 11:09:25;;;;;;;8.20;5.33;;;30.60;36.80;;;;;;10436755;28;20185;-69
2022/04/13 11:14:27;;;;;;;10.93;5.47;;;30.20;37.20;;;;;;10432555;28;20333;-69
2022/04/13 11:19:28;;;;;;;13.17;5.10;;;29.90;38.30;;;;;;10431478;28;20180;-69
2022/04/13 11:24:45;;;;;;;13.40;4.90;;;29.30;38.50;;;;;;10432918;28;20207;-69
2022/04/13 11:29:58;;;;;;;6.90;4.40;;;28.60;40.00;;;;;;10434981;28;20184;-69
2022/04/13 11:35:00;;;;;;;6.57;3.83;;;28.60;40.30;;;;;;10434745;28;20195;-70
2022/04/13 11:40:05;;;;;;;9.03;3.70;;;28.90;41.00;;;;;;10426651;28;20235;-68
2022/04/13 11:45:11;;;;;;;8.10;3.70;;;29.00;40.30;;;;;;10427096;28;20610;-70
2022/04/13 11:50:12;;;;;;;7.70;3.30;;;29.00;40.30;;;;;;10428570;28;20177;-69
2022/04/13 11:55:24;;;;;;;6.03;3.20;;;28.90;39.80;;;;;;10432484;28;20188;-69
2022/04/13 12:00:40;;;;;;;12.77;3.10;;;28.20;40.40;;;;;;10428064;28;20210;-69
2022/04/13 12:05:43;;;;;;;8.53;3.30;;;27.20;41.60;;;;;;10437170;28;20207;-69
2022/04/13 12:10:49;;;;;;;5.73;2.53;;;26.90;42.50;;;;;;10431460;28;20211;-69
2022/04/13 12:15:52;;;;;;;10.10;3.20;;;26.80;43.30;;;;;;10432426;28;20306;-68
2022/04/13 12:21:07;;;;;;;5.13;2.60;;;26.90;41.90;;;;;;10426786;28;20248;-69
2022/04/13 12:26:08;;;;;;;6.40;2.97;;;27.00;41.90;;;;;;10427017;28;20222;-70
2022/04/13 12:31:11;;;;;;;5.27;2.70;;;26.70;42.90;;;;;;10432861;28;20192;-70
2022/04/13 12:36:14;;;;;;;5.03;3.50;;;26.80;42.40;;;;;;10425828;28;20196;-69
2022/04/13 12:41:16;;;;;;;10.47;4.13;;;27.00;42.10;;;;;;10432284;28;20224;-70
2022/04/13 12:46:19;;;;;;;10.03;3.07;;;26.90;41.70;;;;;;10427787;28;20215;-69
2022/04/13 12:51:20;;;;;;;7.57;2.70;;;26.80;41.80;;;;;;10433558;28;20532;-69
2022/04/13 12:56:35;;;;;;;6.67;2.67;;;26.50;42.10;;;;;;10435831;28;20193;-69
2022/04/13 13:01:37;;;;;;;5.07;2.60;;;26.40;42.20;;;;;;10440758;28;20195;-68
2022/04/13 13:06:53;;;;;;;5.77;2.40;;;26.30;40.90;;;;;;10436719;28;20623;-69
2022/04/13 13:11:56;;;;;;;5.53;2.70;;;26.20;40.50;;;;;;10438938;28;20193;-69
2022/04/13 13:16:57;;;;;;;5.57;3.00;;;26.10;41.50;;;;;;10431928;28;20307;-70
2022/04/13 13:22:28;;;;;;;7.20;4.20;;;25.90;43.10;;;;;;10439524;28;20266;-68
2022/04/13 13:27:39;;;;;;;4.77;3.50;;;25.80;44.20;;;;;;10431959;28;20653;-68
2022/04/13 13:32:46;;;;;;;7.23;3.80;;;25.70;44.70;;;;;;10438196;28;20336;-69
2022/04/13 13:37:51;;;;;;;11.30;3.50;;;25.50;44.30;;;;;;10435421;28;20186;-70
2022/04/13 13:42:52;;;;;;;11.50;3.77;;;25.40;44.70;;;;;;10447337;28;20193;-70
2022/04/13 13:47:52;;;;;;;7.83;3.37;;;25.40;46.10;;;;;;10432083;28;20192;-68
2022/04/13 13:52:53;;;;;;;5.37;3.23;;;25.40;46.80;;;;;;10437858;28;20238;-69
2022/04/13 13:57:56;;;;;;;8.40;3.70;;;25.50;46.90;;;;;;10432774;28;20189;-68
2022/04/13 14:02:56;;;;;;;7.07;2.80;;;25.40;45.50;;;;;;10435521;28;20180;-69
2022/04/13 14:08:00;;;;;;;7.83;2.90;;;25.30;46.80;;;;;;10448384;28;20195;-71
2022/04/13 14:13:07;;;;;;;8.63;3.33;;;25.30;46.70;;;;;;10439487;28;20243;-68
2022/04/13 14:18:08;;;;;;;8.67;3.20;;;25.30;46.30;;;;;;10442722;28;20185;-69
2022/04/13 14:23:08;;;;;;;7.53;2.70;;;25.10;45.60;;;;;;10428553;28;20217;-69
2022/04/13 14:28:09;;;;;;;6.60;3.20;;;25.00;46.00;;;;;;10438429;28;20205;-67
2022/04/13 14:33:09;;;;;;;7.67;3.00;;;25.10;45.80;;;;;;10429827;28;20184;-69
2022/04/13 14:38:10;;;;;;;9.70;3.10;;;25.10;45.80;;;;;;10428776;28;20651;-69
2022/04/13 14:43:11;;;;;;;5.27;2.60;;;25.20;45.90;;;;;;10428166;28;20218;-68
2022/04/13 14:48:14;;;;;;;8.53;2.80;;;25.10;45.10;;;;;;10436743;28;20184;-69
2022/04/13 14:53:15;;;;;;;8.70;2.80;;;25.00;44.50;;;;;;10428687;28;20189;-68
2022/04/13 14:58:16;;;;;;;6.40;2.50;;;24.80;44.30;;;;;;10435948;28;20192;-69
2022/04/13 15:03:16;;;;;;;4.43;2.33;;;24.70;45.20;;;;;;10429717;28;20216;-69
2022/04/13 15:08:17;;;;;;;7.13;2.30;;;24.70;43.50;;;;;;10435106;28;20191;-70
2022/04/13 15:13:18;;;;;;;9.73;2.57;;;24.80;43.90;;;;;;10429029;28;20220;-70
2022/04/13 15:18:18;;;;;;;7.00;2.37;;;24.90;43.60;;;;;;10433383;28;20191;-69
2022/04/13 15:23:19;;;;;;;8.30;2.97;;;25.00;42.80;;;;;;10429711;28;20243;-68
2022/04/13 15:28:21;;;;;;;9.27;2.60;;;24.90;42.80;;;;;;10438254;28;20195;-69
2022/04/13 15:33:22;;;;;;;5.87;2.47;;;24.70;44.10;;;;;;10428410;28;20187;-69
2022/04/13 15:38:23;;;;;;;5.97;2.10;;;24.80;43.40;;;;;;10431701;28;20990;-70
2022/04/13 15:43:24;;;;;;;7.87;2.60;;;24.90;43.20;;;;;;10427584;28;20215;-68
2022/04/13 15:48:25;;;;;;;6.17;2.23;;;24.80;42.40;;;;;;10432460;28;20537;-69
2022/04/13 15:53:25;;;;;;;7.53;3.00;;;24.80;42.60;;;;;;10429676;28;20607;-69
2022/04/13 15:58:26;;;;;;;14.03;3.57;;;24.70;43.50;;;;;;10431821;28;20275;-69
2022/04/13 16:03:27;;;;;;;11.87;2.83;;;24.60;43.70;;;;;;10439944;28;20272;-68
2022/04/13 16:08:28;;;;;;;9.43;2.50;;;24.30;42.60;;;;;;10437584;28;20191;-68
2022/04/13 16:13:29;;;;;;;6.97;2.60;;;24.20;44.00;;;;;;10429792;28;20540;-69
2022/04/13 16:18:29;;;;;;;8.00;2.80;;;24.00;44.30;;;;;;10436643;28;20236;-69
2022/04/13 16:23:30;;;;;;;14.77;3.00;;;23.90;44.40;;;;;;10428099;28;20719;-68
2022/04/13 16:28:31;;;;;;;9.93;2.50;;;23.80;44.60;;;;;;10428970;28;20192;-69
2022/04/13 16:33:32;;;;;;;7.03;2.40;;;23.70;45.10;;;;;;10427882;28;20272;-69
2022/04/13 16:38:34;;;;;;;11.23;2.57;;;23.60;45.10;;;;;;10426883;28;20191;-69
2022/04/13 16:43:35;;;;;;;4.57;2.30;;;23.50;45.60;;;;;;10429111;28;20233;-68
2022/04/13 16:48:35;;;;;;;8.33;2.20;;;23.30;45.60;;;;;;10430071;28;20257;-69
2022/04/13 16:53:36;;;;;;;9.70;2.70;;;23.20;46.10;;;;;;10428078;28;20695;-69
2022/04/13 16:58:36;;;;;;;6.63;2.37;;;23.00;46.60;;;;;;10437230;28;20192;-67
2022/04/13 17:03:37;;;;;;;11.83;2.30;;;22.80;46.20;;;;;;10428503;28;20217;-70
2022/04/13 17:08:38;;;;;;;5.57;2.17;;;22.60;46.10;;;;;;10428594;28;20726;-69
2022/04/13 17:13:39;;;;;;;5.63;1.83;;;22.40;46.60;;;;;;10428042;28;20199;-68
2022/04/13 17:18:39;;;;;;;8.33;2.30;;;22.20;46.30;;;;;;10429443;28;20238;-68
2022/04/13 17:23:43;;;;;;;7.00;2.27;;;22.10;47.00;;;;;;10435719;28;20208;-69
2022/04/13 17:28:43;;;;;;;4.63;1.77;;;21.90;47.30;;;;;;10423821;28;20196;-69
2022/04/13 17:33:44;;;;;;;8.30;2.50;;;21.70;47.80;;;;;;10429118;28;20187;-69
2022/04/13 17:38:45;;;;;;;6.63;1.93;;;21.50;48.50;;;;;;10430977;28;20616;-69
2022/04/13 17:43:46;;;;;;;5.03;2.63;;;21.30;49.40;;;;;;10442422;28;20687;-68
2022/04/13 17:48:46;;;;;;;7.57;2.20;;;21.10;50.00;;;;;;10436742;28;20188;-69
2022/04/13 17:53:47;;;;;;;7.07;2.50;;;20.90;50.30;;;;;;10441091;28;20719;-69
2022/04/13 17:58:47;;;;;;;9.60;2.30;;;20.80;50.90;;;;;;10445106;28;20647;-68
2022/04/13 18:03:48;;;;;;;10.33;2.10;;;20.60;51.00;;;;;;10431106;28;20676;-68
2022/04/13 18:08:48;;;;;;;5.93;2.67;;;20.60;51.40;;;;;;10436387;28;20180;-68
2022/04/13 18:13:49;;;;;;;5.63;2.73;;;20.30;52.30;;;;;;10439955;28;20215;-68
2022/04/13 18:18:50;;;;;;;8.20;2.97;;;20.10;53.00;;;;;;10430338;28;20242;-69
2022/04/13 18:23:57;;;;;;;8.27;2.87;;;19.80;54.50;;;;;;10433653;28;20201;-70
2022/04/13 18:28:57;;;;;;;9.57;2.83;;;19.60;56.40;;;;;;10445326;28;20189;-71
2022/04/13 18:33:58;;;;;;;11.00;2.97;;;19.50;56.90;;;;;;10429751;28;20678;-68
2022/04/13 18:38:59;;;;;;;5.43;2.73;;;19.30;58.40;;;;;;10429601;28;20197;-69
2022/04/13 18:44:00;;;;;;;7.13;3.30;;;19.10;60.00;;;;;;10428591;28;20215;-70
2022/04/13 18:49:01;;;;;;;15.03;3.20;;;18.90;62.00;;;;;;10436763;28;20188;-70
2022/04/13 18:54:02;;;;;;;6.97;3.33;;;18.70;63.40;;;;;;10428994;28;20204;-69
2022/04/13 18:59:02;;;;;;;9.33;4.03;;;18.50;64.50;;;;;;10436500;28;20195;-70
2022/04/13 19:04:05;;;;;;;9.73;3.63;;;18.30;67.00;;;;;;10435052;28;20219;-69
2022/04/13 19:09:07;;;;;;;8.90;4.03;;;18.20;68.80;;;;;;10428325;28;20191;-69
2022/04/13 19:14:11;;;;;;;8.10;3.03;;;18.10;69.20;;;;;;10433899;28;20221;-69
2022/04/13 19:19:12;;;;;;;8.63;4.60;;;18.00;70.20;;;;;;10436674;28;20201;-71
2022/04/13 19:24:14;;;;;;;8.03;4.17;;;17.90;71.20;;;;;;10428321;28;20210;-70
2022/04/13 19:29:15;;;;;;;8.50;3.47;;;17.90;72.00;;;;;;10434945;28;20213;-70
2022/04/13 19:34:16;;;;;;;4.43;3.00;;;17.80;71.00;;;;;;10428571;28;20752;-69
2022/04/13 19:39:17;;;;;;;6.37;3.20;;;17.80;72.00;;;;;;10434485;28;20187;-69
2022/04/13 19:44:20;;;;;;;8.07;3.20;;;17.80;70.20;;;;;;10431165;28;20218;-70
2022/04/13 19:49:20;;;;;;;6.77;3.60;;;17.80;69.40;;;;;;10426948;28;20243;-70
2022/04/13 19:54:21;;;;;;;8.03;3.73;;;17.80;69.20;;;;;;10440595;28;20204;-69
2022/04/13 19:59:22;;;;;;;7.70;3.73;;;17.70;69.90;;;;;;10428626;28;20230;-71
2022/04/13 20:04:23;;;;;;;7.40;3.53;;;17.60;69.00;;;;;;10432037;28;20686;-69
2022/04/13 20:09:25;;;;;;;6.00;3.03;;;17.60;69.20;;;;;;10427628;28;20184;-69
2022/04/13 20:14:26;;;;;;;9.53;4.70;;;17.60;69.00;;;;;;10431256;28;20218;-69
2022/04/13 20:19:33;;;;;;;8.10;3.13;;;17.50;68.90;;;;;;10426320;28;20719;-68
2022/04/13 20:24:34;;;;;;;5.57;3.10;;;17.50;69.60;;;;;;10431272;28;20268;-70
2022/04/13 20:29:36;;;;;;;9.97;3.40;;;17.60;69.80;;;;;;10430519;28;20533;-69
2022/04/13 20:34:36;;;;;;;6.17;2.93;;;17.60;70.60;;;;;;10437229;28;20665;-69
2022/04/13 20:39:37;;;;;;;6.53;3.27;;;17.50;71.20;;;;;;10430919;28;20204;-68
2022/04/13 20:44:40;;;;;;;6.87;3.00;;;17.60;71.20;;;;;;10428958;28;20313;-69
2022/04/13 20:49:41;;;;;;;7.30;3.67;;;17.60;71.30;;;;;;10429400;28;20248;-70
2022/04/13 20:54:41;;;;;;;6.73;4.17;;;17.60;72.20;;;;;;10428079;28;20226;-69
2022/04/13 20:59:42;;;;;;;6.97;3.70;;;17.60;74.10;;;;;;10431536;28;20190;-68
2022/04/13 21:04:43;;;;;;;5.50;4.03;;;17.50;74.90;;;;;;10429530;28;20722;-69
2022/04/13 21:09:44;;;;;;;7.97;4.60;;;17.50;76.20;;;;;;10430320;28;20277;-70
2022/04/13 21:14:44;;;;;;;9.07;4.77;;;17.40;77.30;;;;;;10438526;28;20210;-68
2022/04/13 21:19:45;;;;;;;8.07;4.73;;;17.40;78.60;;;;;;10439072;28;20217;-69
2022/04/13 21:24:47;;;;;;;6.53;3.93;;;17.30;80.00;;;;;;10436079;28;20272;-69
2022/04/13 21:29:51;;;;;;;7.63;4.40;;;17.30;79.60;;;;;;10438076;28;20195;-70
2022/04/13 21:34:56;;;;;;;9.33;4.40;;;17.20;79.40;;;;;;10441713;28;20269;-69
2022/04/13 21:39:56;;;;;;;9.37;3.80;;;17.20;80.40;;;;;;10443385;28;20281;-71
2022/04/13 21:44:57;;;;;;;11.50;6.00;;;17.20;82.00;;;;;;10439571;28;20294;-69
2022/04/13 21:50:05;;;;;;;11.10;5.80;;;17.00;83.60;;;;;;10434646;28;20191;-70
2022/04/13 21:55:07;;;;;;;7.40;5.27;;;16.90;85.20;;;;;;10435319;28;20187;-71
2022/04/13 22:00:13;;;;;;;12.67;4.73;;;16.80;86.70;;;;;;10441839;28;20204;-70
2022/04/13 22:05:17;;;;;;;7.30;4.53;;;16.70;89.20;;;;;;10432827;28;20284;-71
2022/04/13 22:10:18;;;;;;;8.97;4.30;;;16.60;90.50;;;;;;10442342;28;20274;-69
2022/04/13 22:15:19;;;;;;;6.77;4.30;;;16.40;92.00;;;;;;10439338;28;20574;-71
2022/04/13 22:20:21;;;;;;;7.47;4.33;;;16.30;93.80;;;;;;10439571;28;20281;-72
2022/04/13 22:25:21;;;;;;;8.93;5.83;;;16.10;96.30;;;;;;10439344;28;20235;-70
2022/04/13 22:30:23;;;;;;;8.03;4.27;;;16.00;99.90;;;;;;10436202;28;20191;-69
2022/04/13 22:35:23;;;;;;;8.37;4.10;;;15.90;99.90;;;;;;10432168;28;20300;-69
2022/04/13 22:40:25;;;;;;;10.43;4.50;;;15.70;99.90;;;;;;10437726;28;20275;-69
2022/04/13 22:45:25;;;;;;;9.00;3.80;;;15.60;99.90;;;;;;10435058;28;20274;-72
2022/04/13 22:50:26;;;;;;;7.67;4.10;;;15.50;99.90;;;;;;10430767;28;20179;-70
2022/04/13 22:55:27;;;;;;;8.93;4.93;;;15.40;99.90;;;;;;10430351;28;20270;-70
2022/04/13 23:00:29;;;;;;;8.20;4.53;;;15.30;99.90;;;;;;10431483;28;20197;-71
2022/04/13 23:05:30;;;;;;;11.27;4.00;;;15.20;99.90;;;;;;10432373;28;20624;-71
2022/04/13 23:10:31;;;;;;;11.67;4.50;;;15.20;99.90;;;;;;10433988;28;20238;-70
2022/04/13 23:15:32;;;;;;;9.43;4.63;;;15.10;99.90;;;;;;10433117;28;20345;-70
2022/04/13 23:20:32;;;;;;;10.43;4.23;;;15.00;99.90;;;;;;10435534;28;20241;-70
2022/04/13 23:25:33;;;;;;;9.83;4.20;;;14.90;99.90;;;;;;10433281;28;20224;-70
2022/04/13 23:30:34;;;;;;;9.47;4.80;;;14.90;99.90;;;;;;10432761;28;20197;-70
2022/04/13 23:35:34;;;;;;;8.23;3.97;;;14.90;99.90;;;;;;10434839;28;20251;-71
2022/04/13 23:40:45;;;;;;;7.50;4.50;;;14.80;99.90;;;;;;10428447;28;20263;-71
2022/04/13 23:45:45;;;;;;;11.57;4.30;;;14.70;99.90;;;;;;10435557;28;20667;-71
2022/04/13 23:50:46;;;;;;;9.30;4.33;;;14.60;99.90;;;;;;10445189;28;20249;-70
2022/04/13 23:55:50;;;;;;;9.67;4.03;;;14.60;99.90;;;;;;10428568;28;20188;-70
